Time;durP1;ratioP1;P1;durP2;ratioP2;P2;SDS_P1;SDS_P2;PMS_P1;PMS_P2;Temp;Humidity;BMP_temperature;BMP_pressure;BME280_temperature;BME280_humidity;BME280_pressure;Samples;Min_cycle;Max_cycle;Signal;HPM_P1;HPM_P2
2023/06/04 00:02:24;;;;;;;3.95;1.80;;;;;;;13.77;41.80;98399.03;4972237;28;20133;-76
2023/06/04 00:04:49;;;;;;;3.20;1.80;;;;;;;13.58;41.84;98393.22;4982266;28;20104;-76
2023/06/04 00:07:14;;;;;;;3.00;1.45;;;;;;;13.76;41.48;98379.31;4981813;28;20112;-75
2023/06/04 00:09:40;;;;;;;3.42;1.63;;;;;;;13.60;42.48;98396.50;5005532;28;20388;-76
2023/06/04 00:12:06;;;;;;;4.97;1.50;;;;;;;13.81;41.91;98392.88;4981805;28;20046;-76
2023/06/04 00:14:31;;;;;;;5.55;1.45;;;;;;;13.65;41.42;98383.00;5006515;28;20057;-76
2023/06/04 00:16:56;;;;;;;6.15;1.70;;;;;;;13.82;41.39;98380.97;4994148;28;20491;-76
2023/06/04 00:19:22;;;;;;;3.67;1.77;;;;;;;13.88;40.55;98379.91;4983581;28;20085;-75
2023/06/04 00:21:47;;;;;;;2.25;1.38;;;;;;;13.72;41.26;98383.59;5001559;28;20120;-76
2023/06/04 00:24:13;;;;;;;4.00;1.50;;;;;;;13.79;40.98;98381.47;5000508;28;20025;-76
2023/06/04 00:26:38;;;;;;;3.40;1.60;;;;;;;13.78;40.71;98370.91;4991159;28;20072;-74
2023/06/04 00:29:04;;;;;;;3.25;1.50;;;;;;;13.43;41.87;98376.88;4981735;28;20444;-75
2023/06/04 00:31:29;;;;;;;2.80;1.48;;;;;;;13.65;41.75;98382.19;4992796;28;20128;-76
2023/06/04 00:33:54;;;;;;;4.18;1.70;;;;;;;13.73;40.88;98369.00;4977361;28;20026;-75
2023/06/04 00:36:20;;;;;;;5.32;1.83;;;;;;;13.38;42.00;98376.84;4977704;28;20121;-76
2023/06/04 00:38:46;;;;;;;4.07;1.70;;;;;;;13.47;41.77;98374.47;4973734;28;20034;-76
2023/06/04 00:41:11;;;;;;;6.85;1.80;;;;;;;13.58;41.41;98371.56;4982304;28;20133;-76
2023/06/04 00:43:37;;;;;;;3.60;1.63;;;;;;;13.52;41.49;98383.44;4960683;28;20035;-76
2023/06/04 00:46:05;;;;;;;2.58;1.75;;;;;;;13.45;41.00;98372.03;4999240;28;20101;-75
2023/06/04 00:48:30;;;;;;;3.08;1.73;;;;;;;13.21;42.93;98376.13;4980139;28;20037;-76
2023/06/04 00:50:57;;;;;;;4.32;1.92;;;;;;;12.67;45.58;98379.88;4983247;28;20124;-75
2023/06/04 00:53:23;;;;;;;2.10;1.95;;;;;;;12.13;47.83;98385.16;4985053;28;20539;-75
2023/06/04 00:55:50;;;;;;;2.40;1.80;;;;;;;11.51;49.64;98380.94;4986154;28;20038;-75
2023/06/04 00:58:16;;;;;;;3.20;1.80;;;;;;;12.41;47.49;98381.47;5007353;28;20104;-76
2023/06/04 01:00:45;;;;;;;2.67;1.75;;;;;;;12.15;47.67;98383.03;4958938;28;20133;-76
2023/06/04 01:03:14;;;;;;;2.40;1.60;;;;;;;11.84;49.42;98389.06;4986627;28;20096;-75
2023/06/04 01:05:59;;;;;;;2.85;1.63;;;;;;;11.57;50.07;98390.78;4995561;28;20542;-76
2023/06/04 01:08:26;;;;;;;3.15;1.80;;;;;;;11.50;50.78;98387.41;5001214;28;20117;-76
2023/06/04 01:10:55;;;;;;;2.22;1.83;;;;;;;11.61;50.75;98386.50;4988045;28;20030;-75
2023/06/04 01:13:22;;;;;;;3.63;1.60;;;;;;;11.51;50.33;98387.16;4985622;28;20030;-75
2023/06/04 01:15:47;;;;;;;3.60;1.80;;;;;;;11.52;50.65;98361.00;4969567;28;20035;-75
2023/06/04 01:18:24;;;;;;;2.83;1.65;;;;;;;11.62;50.00;98383.56;5006372;28;20637;-75
2023/06/04 01:20:49;;;;;;;2.97;1.63;;;;;;;11.52;51.62;98393.38;4975175;28;20046;-75
2023/06/04 01:23:33;;;;;;;2.38;1.50;;;;;;;10.73;54.05;98384.47;4970824;28;20025;-75
2023/06/04 01:26:02;;;;;;;2.22;1.80;;;;;;;11.18;52.16;98389.03;4979435;28;20041;-76
2023/06/04 01:28:29;;;;;;;3.05;1.70;;;;;;;11.24;52.82;98385.34;4963276;28;20030;-76
2023/06/04 01:30:56;;;;;;;2.33;1.70;;;;;;;10.84;52.85;98396.22;4984969;28;20034;-76
2023/06/04 01:33:22;;;;;;;2.17;1.80;;;;;;;11.09;52.63;98389.44;4967117;28;20080;-76
2023/06/04 01:35:47;;;;;;;1.80;1.52;;;;;;;11.01;52.18;98376.38;4977792;28;20117;-76
2023/06/04 01:38:13;;;;;;;1.77;1.45;;;;;;;10.74;53.03;98380.69;5010511;28;20467;-76
2023/06/04 01:40:38;;;;;;;4.20;1.80;;;;;;;10.89;52.94;98390.94;4992262;28;20041;-75
2023/06/04 01:43:04;;;;;;;3.55;1.83;;;;;;;11.09;52.25;98386.72;5009804;28;20155;-76
2023/06/04 01:45:29;;;;;;;4.47;1.80;;;;;;;11.44;51.42;98385.69;4965078;28;20495;-75
2023/06/04 01:47:56;;;;;;;4.00;1.92;;;;;;;10.60;53.92;98384.72;4997006;28;20030;-75
2023/06/04 01:50:23;;;;;;;2.58;1.73;;;;;;;10.48;54.21;98386.63;5004863;28;20376;-75
2023/06/04 01:52:48;;;;;;;3.67;2.08;;;;;;;10.61;54.17;98390.94;4983653;28;20030;-74
2023/06/04 01:55:15;;;;;;;2.80;1.50;;;;;;;10.66;53.48;98388.34;4987880;28;20045;-74
2023/06/04 01:57:41;;;;;;;5.13;1.80;;;;;;;10.84;53.89;98388.97;4984901;28;20029;-75
2023/06/04 02:00:09;;;;;;;4.38;1.50;;;;;;;10.67;54.26;98390.78;4972079;28;20404;-75
2023/06/04 02:02:43;;;;;;;2.90;1.90;;;;;;;10.68;54.25;98397.81;4962601;28;20386;-75
2023/06/04 02:05:09;;;;;;;4.45;1.70;;;;;;;10.24;55.43;98393.16;4983975;28;20061;-75
2023/06/04 02:07:35;;;;;;;3.80;2.05;;;;;;;10.70;54.78;98398.41;4954512;28;20057;-75
2023/06/04 02:10:00;;;;;;;2.80;2.03;;;;;;;10.44;55.39;98396.25;5006671;28;20033;-74
2023/06/04 02:12:26;;;;;;;3.55;2.00;;;;;;;10.65;54.58;98403.69;4977585;28;20029;-75
2023/06/04 02:14:51;;;;;;;3.25;1.90;;;;;;;10.25;55.12;98408.22;4996164;28;20037;-74
2023/06/04 02:19:59;;;;;;;2.72;1.95;;;;;;;10.36;54.64;98377.81;5050905;28;20418;-75
2023/06/04 02:22:25;;;;;;;3.45;1.70;;;;;;;10.56;54.79;98410.50;5026152;28;20044;-75
2023/06/04 02:24:51;;;;;;;3.40;1.88;;;;;;;10.56;54.79;98399.75;5044911;28;20039;-75
2023/06/04 02:27:16;;;;;;;2.97;1.75;;;;;;;10.76;54.03;98410.91;5020618;28;20033;-75
2023/06/04 02:29:42;;;;;;;2.42;1.90;;;;;;;10.25;55.24;98402.84;5044281;28;20397;-74
2023/06/04 02:32:09;;;;;;;4.43;2.20;;;;;;;10.43;54.00;98401.88;5028841;28;20060;-74
2023/06/04 02:34:34;;;;;;;3.55;2.13;;;;;;;10.99;52.11;98405.41;5046024;28;20032;-74
2023/06/04 02:37:00;;;;;;;2.60;1.90;;;;;;;10.85;52.19;98403.28;5024161;28;20029;-74
2023/06/04 02:39:26;;;;;;;2.20;1.70;;;;;;;10.77;53.35;98401.78;5011781;28;20489;-75
2023/06/04 02:41:51;;;;;;;3.40;1.67;;;;;;;10.98;53.44;98413.75;5050287;28;20071;-74
2023/06/04 02:44:17;;;;;;;4.63;1.95;;;;;;;10.64;52.52;98415.50;5026806;28;20074;-74
2023/06/04 02:46:43;;;;;;;2.60;1.90;;;;;;;10.70;54.05;98406.47;5041183;28;20417;-76
2023/06/04 02:49:09;;;;;;;3.22;2.10;;;;;;;10.42;54.70;98419.91;5027970;28;20096;-75
2023/06/04 02:51:34;;;;;;;2.63;1.90;;;;;;;9.99;55.02;98416.78;5032326;28;20037;-74
2023/06/04 02:54:00;;;;;;;2.40;2.00;;;;;;;9.90;56.57;98419.00;5006395;28;20024;-75
2023/06/04 02:56:25;;;;;;;3.25;1.90;;;;;;;10.21;54.45;98412.47;5024709;28;20175;-74
2023/06/04 02:58:55;;;;;;;3.97;1.98;;;;;;;10.44;53.77;98415.09;5020195;28;20048;-75
2023/06/04 03:01:21;;;;;;;4.30;2.17;;;;;;;10.56;54.15;98421.28;5021907;28;20116;-75
2023/06/04 03:03:47;;;;;;;2.72;2.10;;;;;;;10.28;55.54;98407.78;5026942;28;20052;-75
2023/06/04 03:06:16;;;;;;;2.60;2.00;;;;;;;10.16;56.67;98425.81;5050266;28;20091;-75
2023/06/04 03:08:42;;;;;;;2.72;2.10;;;;;;;9.98;56.87;98420.53;5016743;28;20457;-74
2023/06/04 03:11:08;;;;;;;2.95;2.08;;;;;;;10.17;56.81;98427.44;5019230;28;20069;-74
2023/06/04 03:13:33;;;;;;;3.03;2.20;;;;;;;10.22;57.30;98427.56;5009699;28;20029;-74
2023/06/04 03:16:01;;;;;;;3.30;2.03;;;;;;;10.06;57.48;98433.63;5011947;28;20025;-74
2023/06/04 03:18:27;;;;;;;2.60;2.10;;;;;;;10.20;56.06;98432.34;5013775;28;20025;-75
2023/06/04 03:20:54;;;;;;;3.65;2.08;;;;;;;10.15;57.48;98437.63;5025424;28;20025;-75
2023/06/04 03:23:20;;;;;;;2.70;2.08;;;;;;;10.18;57.04;98423.69;5028090;28;20079;-75
2023/06/04 03:25:46;;;;;;;2.13;1.90;;;;;;;10.20;56.27;98426.97;5038049;28;20047;-74
2023/06/04 03:28:11;;;;;;;3.45;2.22;;;;;;;10.12;56.00;98424.66;5027159;28;20119;-74
2023/06/04 03:30:37;;;;;;;5.28;2.15;;;;;;;10.34;55.87;98428.34;5031914;28;20093;-74
2023/06/04 03:33:04;;;;;;;2.22;2.00;;;;;;;10.30;54.92;98427.19;5008582;28;20117;-74
2023/06/04 03:35:30;;;;;;;2.90;2.00;;;;;;;10.18;55.61;98426.38;5021211;28;20119;-74
2023/06/04 03:37:55;;;;;;;3.15;1.70;;;;;;;10.37;55.47;98427.88;5038983;28;20037;-76
2023/06/04 03:40:20;;;;;;;3.35;2.10;;;;;;;10.21;54.80;98423.22;5014690;28;20033;-75
2023/06/04 03:42:47;;;;;;;3.63;1.88;;;;;;;10.51;53.80;98429.25;5017572;28;20107;-75
2023/06/04 03:45:14;;;;;;;3.70;2.10;;;;;;;10.09;54.43;98433.97;5028565;28;20029;-75
2023/06/04 03:47:39;;;;;;;2.75;1.80;;;;;;;10.47;53.27;98428.09;5030157;28;20364;-75
2023/06/04 03:50:06;;;;;;;3.38;2.03;;;;;;;10.71;52.63;98434.25;5000019;28;20041;-75
2023/06/04 03:52:32;;;;;;;4.10;2.03;;;;;;;10.41;53.53;98434.41;5023002;28;20456;-75
2023/06/04 03:55:01;;;;;;;2.83;2.17;;;;;;;10.69;54.27;98429.06;5005448;28;20049;-75
2023/06/04 03:57:27;;;;;;;2.85;2.08;;;;;;;10.84;51.90;98432.06;5033989;28;20060;-75
2023/06/04 03:59:53;;;;;;;2.40;1.88;;;;;;;10.95;52.34;98436.59;5055820;28;20063;-75
2023/06/04 04:02:19;;;;;;;3.22;2.05;;;;;;;11.01;52.44;98430.25;5001365;28;20030;-74
2023/06/04 04:04:44;;;;;;;2.30;1.92;;;;;;;10.82;53.39;98426.13;5035104;28;20037;-75
2023/06/04 04:07:10;;;;;;;3.03;2.17;;;;;;;10.80;53.05;98433.63;5037330;28;20080;-75
2023/06/04 04:09:36;;;;;;;3.75;2.53;;;;;;;10.93;55.10;98422.56;5004248;28;20368;-75
2023/06/04 04:12:02;;;;;;;4.30;1.98;;;;;;;10.91;54.24;98423.84;5024347;28;20028;-74
2023/06/04 04:14:28;;;;;;;5.55;2.33;;;;;;;10.90;53.52;98431.09;5030092;28;20164;-76
2023/06/04 04:16:53;;;;;;;4.47;2.40;;;;;;;11.35;52.30;98430.31;4993834;28;20142;-76
2023/06/04 04:19:20;;;;;;;2.67;2.47;;;;;;;11.08;53.09;98430.91;5026818;28;20033;-76
2023/06/04 04:21:48;;;;;;;3.78;1.88;;;;;;;11.05;52.48;98436.78;5001070;28;20028;-75
2023/06/04 04:24:24;;;;;;;3.33;2.40;;;;;;;11.47;51.38;98426.47;5006044;28;20452;-76
2023/06/04 04:26:53;;;;;;;4.50;2.17;;;;;;;11.20;51.25;98425.47;5015934;28;20121;-74
2023/06/04 04:29:24;;;;;;;4.10;2.30;;;;;;;11.25;50.58;98436.31;5022962;28;20036;-73
2023/06/04 04:31:51;;;;;;;4.00;2.20;;;;;;;11.32;51.37;98433.50;5022274;28;20041;-74
2023/06/04 04:34:21;;;;;;;5.78;2.10;;;;;;;11.19;51.71;98442.69;4999757;28;20087;-75
2023/06/04 04:36:52;;;;;;;5.57;2.53;;;;;;;11.32;51.06;98436.19;5032034;28;20036;-75
2023/06/04 04:39:24;;;;;;;3.38;2.42;;;;;;;11.17;52.10;98449.41;5003015;28;20035;-75
2023/06/04 04:41:54;;;;;;;4.30;2.45;;;;;;;11.51;51.57;98440.28;5019485;28;20033;-74
2023/06/04 04:44:20;;;;;;;3.78;2.33;;;;;;;11.58;51.05;98440.94;5024636;28;20036;-74
2023/06/04 04:46:45;;;;;;;4.80;2.35;;;;;;;11.90;50.11;98450.16;5014415;28;20020;-75
2023/06/04 04:49:10;;;;;;;4.70;2.55;;;;;;;11.51;51.95;98446.50;5003244;28;20036;-73
2023/06/04 04:51:36;;;;;;;4.35;2.63;;;;;;;11.70;51.32;98445.25;5035091;28;20037;-72
2023/06/04 04:54:02;;;;;;;4.55;2.70;;;;;;;11.91;51.19;98446.38;5024434;28;20033;-74
2023/06/04 04:56:33;;;;;;;5.22;2.70;;;;;;;11.50;52.43;98444.06;5033493;28;20028;-73
2023/06/04 04:58:58;;;;;;;4.45;2.47;;;;;;;11.83;52.01;98445.97;5036640;28;20035;-74
2023/06/04 05:01:25;;;;;;;4.43;2.50;;;;;;;12.07;50.20;98445.53;5020376;28;20032;-74
2023/06/04 05:03:51;;;;;;;6.80;2.70;;;;;;;12.04;50.83;98446.03;5023245;28;20061;-74
2023/06/04 05:06:17;;;;;;;4.30;2.60;;;;;;;12.38;50.79;98446.78;5013737;28;20025;-73
2023/06/04 05:08:43;;;;;;;3.17;2.33;;;;;;;12.31;51.77;98446.97;5032755;28;20440;-73
2023/06/04 05:11:09;;;;;;;4.53;3.00;;;;;;;12.17;51.13;98451.09;5030760;28;20017;-75
2023/06/04 05:13:36;;;;;;;4.82;2.65;;;;;;;12.57;50.91;98458.09;5001793;28;20033;-74
2023/06/04 05:16:06;;;;;;;8.30;2.70;;;;;;;12.81;49.74;98456.81;5027566;28;20025;-73
2023/06/04 05:18:40;;;;;;;3.05;2.38;;;;;;;13.12;49.52;98458.78;5053341;28;20035;-74
2023/06/04 05:21:07;;;;;;;3.17;2.28;;;;;;;13.10;49.70;98469.06;5040717;28;20785;-74
2023/06/04 05:23:36;;;;;;;3.15;2.33;;;;;;;12.74;51.34;98461.56;5039918;28;20027;-74
2023/06/04 05:26:03;;;;;;;7.00;2.60;;;;;;;12.70;50.97;98460.44;5031050;28;20115;-74
2023/06/04 05:28:28;;;;;;;4.78;2.83;;;;;;;13.05;50.90;98463.56;5037062;28;20086;-74
2023/06/04 05:30:59;;;;;;;4.78;2.78;;;;;;;13.11;50.06;98468.00;5031361;28;20076;-74
2023/06/04 05:33:26;;;;;;;5.18;2.35;;;;;;;13.22;51.22;98469.72;5018825;28;20052;-76
2023/06/04 05:35:59;;;;;;;3.45;2.42;;;;;;;13.59;50.10;98478.75;5029097;28;20052;-74
2023/06/04 05:38:30;;;;;;;3.40;2.45;;;;;;;13.61;49.91;98479.31;5020441;28;20040;-74
2023/06/04 05:40:57;;;;;;;4.07;2.22;;;;;;;13.68;50.93;98473.69;5037451;28;20448;-74
2023/06/04 05:43:26;;;;;;;5.50;2.60;;;;;;;14.05;50.32;98473.75;5023123;28;20448;-75
2023/06/04 05:45:52;;;;;;;5.22;2.33;;;;;;;13.67;50.52;98469.38;5040673;28;20087;-74
2023/06/04 05:48:18;;;;;;;4.47;2.55;;;;;;;14.04;50.77;98469.38;5000127;28;20025;-74
2023/06/04 05:50:43;;;;;;;3.90;2.10;;;;;;;14.39;49.06;98466.94;5010443;28;20036;-75
2023/06/04 05:53:09;;;;;;;3.58;2.35;;;;;;;14.38;47.95;98479.66;5021232;28;20025;-74
2023/06/04 05:55:35;;;;;;;4.13;2.30;;;;;;;14.56;47.06;98475.72;5043253;28;20230;-76
2023/06/04 05:58:00;;;;;;;2.80;1.92;;;;;;;14.96;47.63;98475.88;5049692;28;20482;-73
2023/06/04 06:00:26;;;;;;;4.28;2.15;;;;;;;14.63;47.71;98480.91;5036323;28;20043;-75
2023/06/04 06:02:55;;;;;;;6.03;2.40;;;;;;;14.63;48.50;98465.47;5004542;28;20044;-75
2023/06/04 06:05:32;;;;;;;4.38;2.28;;;;;;;14.74;48.76;98475.28;5013228;28;20039;-76
2023/06/04 06:07:58;;;;;;;3.63;2.33;;;;;;;14.98;46.97;98470.22;5023873;28;20036;-78
2023/06/04 06:10:24;;;;;;;5.28;2.05;;;;;;;14.98;46.89;98472.94;5027002;28;20029;-77
2023/06/04 06:12:49;;;;;;;3.10;2.30;;;;;;;15.41;45.38;98471.69;5032200;28;20059;-77
2023/06/04 06:15:15;;;;;;;4.78;2.60;;;;;;;15.37;47.01;98481.44;5019006;28;20067;-76
2023/06/04 06:17:43;;;;;;;3.70;2.22;;;;;;;15.22;45.17;98476.78;5036562;28;20034;-77
2023/06/04 06:20:09;;;;;;;5.20;2.28;;;;;;;15.54;45.26;98482.06;5025448;28;20532;-75
2023/06/04 06:22:35;;;;;;;6.07;2.58;;;;;;;15.35;46.78;98483.63;5019319;28;20514;-75
2023/06/04 06:25:03;;;;;;;4.55;2.13;;;;;;;15.70;45.45;98478.28;5012166;28;20025;-76
2023/06/04 06:27:28;;;;;;;5.70;2.50;;;;;;;15.47;45.87;98487.75;5033692;28;20037;-74
2023/06/04 06:29:54;;;;;;;4.45;2.15;;;;;;;15.52;45.33;98492.38;5040861;28;20391;-72
2023/06/04 06:32:19;;;;;;;2.30;1.77;;;;;;;15.32;45.42;98484.97;5045094;28;20111;-75
2023/06/04 06:34:45;;;;;;;2.90;1.90;;;;;;;15.48;46.08;98494.81;5034822;28;20022;-76
2023/06/04 06:37:10;;;;;;;3.33;1.88;;;;;;;16.09;47.12;98490.22;5035323;28;20129;-76
2023/06/04 06:39:35;;;;;;;3.25;2.28;;;;;;;16.05;44.75;98493.78;5035473;28;20039;-75
2023/06/04 06:42:01;;;;;;;4.13;2.20;;;;;;;16.02;44.84;98499.75;5031951;28;20112;-76
2023/06/04 06:44:32;;;;;;;4.18;2.08;;;;;;;16.39;44.28;98498.34;5003412;28;20037;-76
2023/06/04 06:46:58;;;;;;;2.35;2.15;;;;;;;16.50;44.63;98497.25;5022489;28;20483;-75
2023/06/04 06:49:23;;;;;;;2.75;1.83;;;;;;;16.34;44.77;98498.34;5025218;28;20029;-76
2023/06/04 06:51:48;;;;;;;7.75;2.38;;;;;;;16.62;43.46;98498.91;5054835;28;20039;-76
2023/06/04 06:54:17;;;;;;;3.72;1.90;;;;;;;17.22;42.96;98495.97;5035649;28;20025;-75
2023/06/04 06:56:43;;;;;;;3.55;1.85;;;;;;;16.99;42.22;98491.16;5034271;28;20395;-75
2023/06/04 06:59:08;;;;;;;2.42;1.70;;;;;;;17.03;42.37;98489.50;5052783;28;20028;-75
2023/06/04 07:01:33;;;;;;;3.22;1.90;;;;;;;17.36;42.09;98488.81;5013340;28;20043;-75
2023/06/04 07:03:59;;;;;;;3.33;1.65;;;;;;;17.06;42.09;98494.41;5034312;28;20027;-76
2023/06/04 07:06:24;;;;;;;3.67;2.10;;;;;;;16.86;42.38;98494.47;5034867;28;20095;-75
2023/06/04 07:08:50;;;;;;;4.03;2.10;;;;;;;17.26;42.67;98488.84;5061795;28;20039;-75
2023/06/04 07:11:16;;;;;;;3.35;1.83;;;;;;;17.42;42.43;98493.13;5038060;28;20048;-76
2023/06/04 07:13:42;;;;;;;4.70;2.08;;;;;;;17.47;41.36;98489.56;5038777;28;20029;-75
2023/06/04 07:16:07;;;;;;;1.98;1.70;;;;;;;17.81;40.48;98491.25;5018304;28;20029;-75
2023/06/04 07:18:33;;;;;;;4.50;1.67;;;;;;;17.58;40.95;98496.59;5046164;28;20032;-76
2023/06/04 07:20:58;;;;;;;2.83;1.90;;;;;;;17.79;40.54;98504.34;5072500;28;20052;-75
2023/06/04 07:23:24;;;;;;;2.95;1.80;;;;;;;17.81;41.21;98502.16;5037377;28;20020;-76
2023/06/04 07:25:49;;;;;;;4.88;2.15;;;;;;;18.23;41.35;98492.53;5037828;28;20384;-76
2023/06/04 07:28:15;;;;;;;3.95;1.70;;;;;;;18.01;39.02;98497.66;5058299;28;20028;-76
2023/06/04 07:30:40;;;;;;;3.40;1.73;;;;;;;18.11;36.48;98494.84;5033705;28;20509;-75
2023/06/04 07:33:06;;;;;;;4.10;2.00;;;;;;;18.68;35.62;98489.41;5033582;28;20056;-76
2023/06/04 07:35:31;;;;;;;2.13;1.65;;;;;;;18.79;36.13;98496.38;5028357;28;20456;-76
2023/06/04 07:37:57;;;;;;;4.30;1.73;;;;;;;18.49;34.92;98497.50;5040643;28;20100;-76
2023/06/04 07:40:22;;;;;;;7.38;1.88;;;;;;;18.71;35.33;98494.28;5014395;28;20045;-75
2023/06/04 07:42:48;;;;;;;2.35;1.65;;;;;;;18.77;34.38;98493.13;5034253;28;20032;-75
2023/06/04 07:45:14;;;;;;;3.50;1.60;;;;;;;18.90;34.77;98491.63;5033668;28;20033;-76
2023/06/04 07:47:39;;;;;;;4.22;1.70;;;;;;;18.74;34.10;98490.97;5034205;28;20067;-76
2023/06/04 07:50:05;;;;;;;5.05;1.80;;;;;;;19.22;35.02;98486.31;5044481;28;20514;-74
2023/06/04 07:52:31;;;;;;;3.85;1.48;;;;;;;18.93;33.72;98488.28;5044446;28;20024;-74
2023/06/04 07:54:56;;;;;;;2.15;1.60;;;;;;;19.21;34.26;98482.75;5042194;28;20099;-74
2023/06/04 07:57:22;;;;;;;3.08;1.88;;;;;;;19.22;33.75;98489.84;4997817;28;20438;-74
2023/06/04 07:59:48;;;;;;;4.07;1.80;;;;;;;19.74;34.15;98485.31;5016939;28;20035;-74
2023/06/04 08:02:14;;;;;;;3.25;1.80;;;;;;;19.49;34.00;98481.03;5040623;28;20394;-74
2023/06/04 08:04:40;;;;;;;3.95;1.60;;;;;;;19.75;32.96;98487.75;5017115;28;20038;-74
2023/06/04 08:07:05;;;;;;;2.83;1.50;;;;;;;19.68;31.86;98481.84;5017421;28;20047;-74
2023/06/04 08:09:31;;;;;;;3.28;1.83;;;;;;;19.70;31.88;98484.28;5048138;28;20068;-74
2023/06/04 08:11:56;;;;;;;1.98;1.45;;;;;;;19.27;32.23;98487.06;5058019;28;20713;-74
2023/06/04 08:14:23;;;;;;;4.00;1.60;;;;;;;19.59;32.51;98482.81;5026331;28;20046;-76
2023/06/04 08:16:48;;;;;;;1.80;1.60;;;;;;;19.65;31.44;98481.66;5038696;28;20107;-74
2023/06/04 08:19:15;;;;;;;2.42;1.52;;;;;;;19.70;32.71;98478.81;5037430;28;20127;-75
2023/06/04 08:21:41;;;;;;;5.35;1.95;;;;;;;20.02;31.19;98480.78;5052314;28;20064;-74
2023/06/04 08:24:08;;;;;;;3.70;1.75;;;;;;;19.67;31.48;98484.88;5070925;28;20505;-74
2023/06/04 08:26:34;;;;;;;3.10;1.70;;;;;;;19.60;31.38;98489.91;5071391;28;20035;-71
2023/06/04 08:29:02;;;;;;;3.33;1.70;;;;;;;19.94;31.16;98490.47;5036968;28;20406;-74
2023/06/04 08:31:28;;;;;;;4.05;1.77;;;;;;;19.97;31.11;98489.88;5015949;28;20051;-74
2023/06/04 08:33:53;;;;;;;5.63;1.83;;;;;;;20.32;30.94;98485.78;5036423;28;20036;-71
2023/06/04 08:36:19;;;;;;;6.97;2.00;;;;;;;20.62;31.26;98497.00;5012700;28;20025;-71
2023/06/04 08:38:44;;;;;;;5.63;1.95;;;;;;;20.86;31.42;98490.50;5029539;28;20108;-71
2023/06/04 08:41:15;;;;;;;3.33;1.52;;;;;;;20.58;30.29;98490.47;5024901;28;20650;-77
2023/06/04 08:43:43;;;;;;;5.43;1.63;;;;;;;20.65;29.60;98496.34;5028938;28;20028;-77
2023/06/04 08:46:09;;;;;;;4.45;1.67;;;;;;;20.31;30.12;98489.59;5035922;28;20067;-74
2023/06/04 08:48:35;;;;;;;2.35;1.50;;;;;;;20.46;30.65;98498.38;5036554;28;20037;-74
2023/06/04 08:51:02;;;;;;;4.22;1.58;;;;;;;20.82;30.46;98500.47;5020773;28;20470;-74
2023/06/04 08:53:30;;;;;;;3.17;1.80;;;;;;;20.73;29.15;98503.06;5036689;28;20490;-74
2023/06/04 08:55:56;;;;;;;2.55;1.80;;;;;;;20.39;29.24;98503.44;5020839;28;20032;-74
2023/06/04 08:58:22;;;;;;;3.92;1.63;;;;;;;20.19;29.83;98486.50;5037216;28;20032;-75
2023/06/04 09:00:47;;;;;;;5.45;1.75;;;;;;;20.71;29.86;98493.53;5005058;28;20040;-75
2023/06/04 09:03:15;;;;;;;4.50;1.70;;;;;;;20.87;29.76;98492.13;5031736;28;20495;-75
2023/06/04 09:05:42;;;;;;;4.07;2.15;;;;;;;20.96;28.79;98484.81;5029198;28;20024;-75
2023/06/04 09:08:08;;;;;;;2.50;1.50;;;;;;;21.11;29.37;98484.56;5036293;28;20100;-75
2023/06/04 09:10:35;;;;;;;3.72;1.85;;;;;;;21.10;29.08;98494.69;5038343;28;20024;-74
2023/06/04 09:13:02;;;;;;;2.53;1.77;;;;;;;21.37;28.39;98502.09;5036381;28;20044;-74
2023/06/04 09:15:27;;;;;;;6.78;1.88;;;;;;;21.03;29.79;98497.00;5042124;28;20029;-75
2023/06/04 09:17:53;;;;;;;3.00;1.70;;;;;;;20.57;28.25;98505.28;5052197;28;20033;-74
2023/06/04 09:20:23;;;;;;;3.65;1.77;;;;;;;20.64;29.59;98500.22;5045502;28;20429;-75
2023/06/04 09:22:48;;;;;;;2.47;1.55;;;;;;;21.59;29.23;98499.38;5037061;28;20029;-74
2023/06/04 09:25:21;;;;;;;4.10;1.40;;;;;;;21.51;28.98;98508.34;5037213;28;20035;-74
2023/06/04 09:27:46;;;;;;;2.03;1.50;;;;;;;21.82;29.25;98503.78;5021025;28;20072;-74
2023/06/04 09:30:12;;;;;;;5.35;1.80;;;;;;;21.31;29.86;98500.56;5043075;28;20033;-74
2023/06/04 09:32:37;;;;;;;2.17;1.75;;;;;;;21.93;30.30;98498.91;5030733;28;20076;-74
2023/06/04 09:35:12;;;;;;;2.78;1.65;;;;;;;21.67;28.12;98497.84;5041705;28;20055;-72
2023/06/04 09:37:41;;;;;;;4.30;1.95;;;;;;;22.08;28.58;98489.53;5037732;28;20340;-74
2023/06/04 09:40:07;;;;;;;4.25;1.63;;;;;;;22.48;28.51;98499.44;5029261;28;20548;-73
2023/06/04 09:42:43;;;;;;;4.60;2.00;;;;;;;21.80;28.29;98500.53;5030140;28;20037;-73
2023/06/04 09:45:09;;;;;;;4.40;1.75;;;;;;;21.76;28.35;98499.56;5034425;28;20119;-74
2023/06/04 09:47:44;;;;;;;3.00;1.70;;;;;;;22.24;27.79;98499.00;5048097;28;20550;-73
2023/06/04 09:50:13;;;;;;;5.00;1.83;;;;;;;22.06;28.23;98498.03;5039936;28;20033;-74
2023/06/04 09:52:39;;;;;;;2.50;1.85;;;;;;;22.36;27.81;98504.69;5017417;28;20034;-74
2023/06/04 09:55:22;;;;;;;3.15;1.73;;;;;;;21.64;28.48;98488.31;5007507;28;20029;-74
2023/06/04 09:57:50;;;;;;;4.20;1.80;;;;;;;21.73;27.97;98486.44;5033288;28;20483;-74
2023/06/04 10:00:17;;;;;;;3.45;1.50;;;;;;;22.49;26.35;98495.59;5043143;28;20133;-74
2023/06/04 10:02:44;;;;;;;4.40;1.67;;;;;;;22.46;26.34;98496.22;5026005;28;20124;-74
2023/06/04 10:05:13;;;;;;;3.88;1.60;;;;;;;21.87;27.09;98490.00;5035731;28;20024;-74
2023/06/04 10:07:39;;;;;;;2.85;1.60;;;;;;;21.26;29.01;98484.25;5024177;28;20124;-74
2023/06/04 10:10:05;;;;;;;4.65;1.90;;;;;;;22.37;27.22;98484.38;4999820;28;20032;-76
2023/06/04 10:12:31;;;;;;;3.35;2.00;;;;;;;21.94;26.91;98484.06;4996972;28;20033;-74
2023/06/04 10:15:00;;;;;;;3.20;1.70;;;;;;;22.06;27.81;98491.75;5032900;28;20037;-74
2023/06/04 10:17:27;;;;;;;2.38;1.70;;;;;;;22.38;27.13;98488.75;5041408;28;20485;-74
2023/06/04 10:19:54;;;;;;;2.50;1.60;;;;;;;22.55;25.29;98483.34;5028471;28;20055;-74
2023/06/04 10:22:20;;;;;;;2.90;1.77;;;;;;;22.22;26.45;98482.03;5033779;28;20044;-74
2023/06/04 10:24:46;;;;;;;4.45;1.80;;;;;;;21.94;27.85;98479.41;5026547;28;20021;-74
2023/06/04 10:27:12;;;;;;;3.47;1.80;;;;;;;22.75;25.67;98477.34;5049928;28;20124;-74
2023/06/04 10:29:38;;;;;;;2.92;1.75;;;;;;;22.43;25.18;98475.69;5053937;28;20083;-73
2023/06/04 10:32:04;;;;;;;1.88;1.58;;;;;;;22.21;26.16;98477.66;5051419;28;20036;-74
2023/06/04 10:34:30;;;;;;;2.65;1.80;;;;;;;22.20;25.19;98476.03;5032149;28;20022;-73
2023/06/04 10:36:55;;;;;;;2.80;1.67;;;;;;;22.29;26.11;98485.13;5035406;28;20118;-74
2023/06/04 10:39:28;;;;;;;3.58;1.63;;;;;;;22.25;27.41;98473.16;5034243;28;20429;-73
2023/06/04 10:42:00;;;;;;;3.55;1.60;;;;;;;22.73;26.01;98478.78;5032881;28;20086;-74
2023/06/04 10:44:25;;;;;;;2.38;1.95;;;;;;;22.39;26.54;98480.19;5031101;28;20065;-74
2023/06/04 10:46:51;;;;;;;3.20;1.90;;;;;;;23.48;25.69;98464.81;5034252;28;20498;-74
2023/06/04 10:49:28;;;;;;;3.08;1.95;;;;;;;23.11;24.88;98475.22;5033950;28;20041;-74
2023/06/04 10:51:56;;;;;;;4.38;1.88;;;;;;;23.26;25.36;98472.03;5040097;28;20418;-74
2023/06/04 10:54:27;;;;;;;2.10;1.58;;;;;;;23.70;27.76;98470.97;5042313;28;20030;-74
2023/06/04 10:56:53;;;;;;;4.38;1.80;;;;;;;23.60;26.62;98457.53;5035327;28;20041;-74
2023/06/04 10:59:19;;;;;;;4.05;1.95;;;;;;;23.02;25.50;98460.63;5049286;28;20025;-73
2023/06/04 11:01:44;;;;;;;3.33;1.70;;;;;;;23.22;25.66;98464.75;5063461;28;20025;-74
2023/06/04 11:04:24;;;;;;;2.40;1.63;;;;;;;22.83;25.38;98475.75;5036471;28;20533;-74
2023/06/04 11:07:15;;;;;;;3.55;1.90;;;;;;;22.89;27.07;98478.06;5034215;28;20063;-74
2023/06/04 11:09:48;;;;;;;3.85;1.90;;;;;;;23.54;26.38;98469.03;5030450;28;20049;-74
2023/06/04 11:12:14;;;;;;;3.63;1.77;;;;;;;23.38;25.03;98470.63;5046031;28;20051;-74
2023/06/04 11:14:40;;;;;;;2.47;1.85;;;;;;;23.11;25.33;98466.16;5052116;28;20025;-74
2023/06/04 11:17:12;;;;;;;2.90;2.00;;;;;;;23.14;25.61;98452.59;5033714;28;20033;-74
2023/06/04 11:19:38;;;;;;;3.95;2.00;;;;;;;23.09;25.33;98455.50;5016532;28;20037;-74
2023/06/04 11:22:05;;;;;;;2.25;2.03;;;;;;;22.98;24.71;98453.34;5034709;28;20104;-74
2023/06/04 11:24:30;;;;;;;3.88;1.90;;;;;;;23.45;24.56;98452.53;5034202;28;20037;-74
2023/06/04 11:26:59;;;;;;;1.95;1.65;;;;;;;23.51;24.24;98451.22;5043523;28;20067;-74
2023/06/04 11:29:25;;;;;;;4.70;1.98;;;;;;;23.99;25.36;98446.38;5050302;28;20056;-74
2023/06/04 11:31:50;;;;;;;5.03;1.80;;;;;;;24.32;23.85;98452.16;5033331;28;20188;-74
2023/06/04 11:34:29;;;;;;;5.00;1.95;;;;;;;24.14;24.48;98450.59;5048681;28;20072;-74
2023/06/04 11:36:55;;;;;;;3.83;1.80;;;;;;;24.32;22.80;98443.91;5049216;28;20098;-74